createdAt,value
2022-11-27T00:02:06.280Z,86.60
2022-11-27T00:04:34.361Z,90.40
2022-11-27T00:07:02.179Z,87.40
2022-11-27T00:09:30.390Z,90.10
2022-11-27T00:11:58.264Z,91.70
2022-11-27T00:14:26.181Z,89.90
2022-11-27T00:16:54.210Z,96.00
2022-11-27T00:19:27.895Z,92.90
2022-11-27T00:21:56.980Z,86.40
2022-11-27T00:24:24.847Z,91.10
2022-11-27T00:26:52.671Z,97.50
2022-11-27T00:29:20.627Z,93.60
2022-11-27T00:31:48.490Z,98.00
2022-11-27T00:34:16.381Z,97.90
2022-11-27T00:36:48.126Z,100.90
2022-11-27T00:39:16.429Z,93.40
2022-11-27T00:41:44.128Z,91.10
2022-11-27T00:44:13.454Z,86.50
2022-11-27T00:46:44.289Z,91.20
2022-11-27T00:49:13.421Z,93.00
2022-11-27T00:51:41.726Z,90.20
2022-11-27T00:54:09.741Z,92.90
2022-11-27T00:56:38.394Z,94.60
2022-11-27T00:59:07.467Z,82.80
2022-11-27T01:01:37.728Z,88.90
2022-11-27T01:04:06.482Z,89.80
2022-11-27T01:06:34.988Z,92.20
2022-11-27T01:09:03.709Z,91.50
2022-11-27T01:11:33.331Z,91.20
2022-11-27T01:14:03.433Z,88.30
2022-11-27T01:16:32.252Z,89.80
2022-11-27T01:19:01.621Z,90.80
2022-11-27T01:21:31.059Z,85.50
2022-11-27T01:23:59.616Z,83.40
2022-11-27T01:26:27.637Z,87.40
2022-11-27T01:29:01.727Z,86.60
2022-11-27T01:31:34.352Z,86.10
2022-11-27T01:34:07.534Z,87.00
2022-11-27T01:36:35.845Z,85.70
2022-11-27T01:39:03.840Z,83.70
2022-11-27T01:41:33.058Z,84.00
2022-11-27T01:44:03.150Z,83.90
2022-11-27T01:46:40.069Z,85.40
2022-11-27T01:49:10.970Z,83.30
2022-11-27T01:51:49.153Z,74.20
2022-11-27T01:54:25.436Z,79.30
2022-11-27T01:57:01.582Z,85.90
2022-11-27T01:59:33.816Z,83.70
2022-11-27T02:02:01.971Z,80.50
2022-11-27T02:04:36.925Z,79.00
2022-11-27T02:07:05.060Z,78.90
2022-11-27T02:09:33.198Z,79.70
2022-11-27T02:12:01.075Z,84.20
2022-11-27T02:14:37.955Z,73.40
2022-11-27T02:17:21.724Z,85.60
2022-11-27T02:19:55.947Z,63.00
2022-11-27T02:25:00.516Z,77.90
2022-11-27T02:27:49.540Z,72.30
2022-11-27T02:30:17.606Z,76.40
2022-11-27T02:32:48.812Z,70.30
2022-11-27T02:35:23.479Z,72.50
2022-11-27T02:37:58.186Z,73.10
2022-11-27T02:40:41.512Z,72.30
2022-11-27T02:43:11.188Z,71.90
2022-11-27T02:45:45.458Z,71.80
2022-11-27T02:48:15.177Z,69.20
2022-11-27T02:50:44.389Z,76.00
2022-11-27T02:53:18.107Z,67.60
2022-11-27T02:55:53.577Z,73.40
2022-11-27T02:58:22.326Z,55.90
2022-11-27T03:00:50.389Z,72.40
2022-11-27T03:03:24.110Z,68.10
2022-11-27T03:05:54.957Z,67.50
2022-11-27T03:08:29.103Z,68.50
2022-11-27T03:11:08.080Z,70.40
2022-11-27T03:13:42.203Z,69.00
2022-11-27T03:18:41.907Z,67.60
2022-11-27T03:21:16.070Z,68.00
2022-11-27T03:23:43.798Z,68.40
2022-11-27T03:26:11.603Z,73.30
2022-11-27T03:28:40.203Z,74.60
2022-11-27T03:31:08.013Z,78.80
2022-11-27T03:33:35.773Z,71.70
2022-11-27T03:36:10.421Z,69.20
2022-11-27T03:38:43.466Z,69.50
2022-11-27T03:41:17.354Z,66.90
2022-11-27T03:43:51.053Z,67.20
2022-11-27T03:46:27.559Z,68.00
2022-11-27T03:49:03.398Z,71.20
2022-11-27T03:51:42.498Z,71.80
2022-11-27T03:54:25.122Z,67.10
2022-11-27T03:57:05.658Z,69.90
2022-11-27T03:59:37.167Z,71.60
2022-11-27T04:02:06.239Z,71.70
2022-11-27T04:04:34.234Z,66.00
2022-11-27T04:07:02.116Z,71.20
2022-11-27T04:09:29.931Z,67.70
2022-11-27T04:11:57.636Z,68.10
2022-11-27T04:14:25.437Z,63.60
2022-11-27T04:16:57.026Z,72.20
2022-11-27T04:19:24.777Z,72.50
2022-11-27T04:21:52.481Z,69.00
2022-11-27T04:24:20.277Z,73.10
2022-11-27T04:26:48.088Z,68.40
2022-11-27T04:29:15.855Z,68.30
2022-11-27T04:31:43.684Z,72.10
2022-11-27T04:34:11.518Z,69.60
2022-11-27T04:36:39.799Z,71.10
2022-11-27T04:39:07.882Z,71.60
2022-11-27T04:41:35.709Z,74.70
2022-11-27T04:44:03.619Z,65.40
2022-11-27T04:46:32.016Z,68.90
2022-11-27T04:48:59.959Z,66.50
2022-11-27T04:51:28.003Z,70.60
2022-11-27T04:53:55.982Z,68.90
2022-11-27T04:56:23.800Z,70.20
2022-11-27T04:58:51.532Z,66.70
2022-11-27T05:01:19.551Z,70.60
2022-11-27T05:03:48.259Z,67.00
2022-11-27T05:06:16.630Z,69.40
2022-11-27T05:08:44.448Z,68.50
2022-11-27T05:11:13.363Z,69.50
2022-11-27T05:13:41.260Z,63.70
2022-11-27T05:16:13.127Z,62.60
2022-11-27T05:18:41.006Z,71.80
2022-11-27T05:21:08.720Z,66.90
2022-11-27T05:23:36.454Z,66.70
2022-11-27T05:26:04.298Z,66.80
2022-11-27T05:28:32.060Z,67.90
2022-11-27T05:31:00.045Z,63.10
2022-11-27T05:33:27.915Z,65.80
2022-11-27T05:35:55.784Z,69.60
2022-11-27T05:38:30.392Z,64.70
2022-11-27T05:40:58.119Z,64.60
2022-11-27T05:43:25.913Z,63.70
2022-11-27T05:45:53.725Z,62.70
2022-11-27T05:48:21.426Z,58.40
2022-11-27T05:50:49.387Z,59.70
2022-11-27T05:53:17.147Z,59.00
2022-11-27T05:55:44.815Z,62.00
2022-11-27T05:58:12.631Z,61.20
2022-11-27T06:00:40.396Z,62.60
2022-11-27T06:03:08.416Z,63.90
2022-11-27T06:05:40.173Z,62.60
2022-11-27T06:08:08.107Z,59.70
2022-11-27T06:10:37.989Z,64.10
2022-11-27T06:13:06.053Z,60.30
2022-11-27T06:15:33.868Z,60.50
2022-11-27T06:18:01.690Z,55.50
2022-11-27T06:20:29.670Z,61.50
2022-11-27T06:22:57.657Z,67.20
2022-11-27T06:25:26.019Z,64.80
2022-11-27T06:27:53.720Z,64.80
2022-11-27T06:30:21.723Z,66.40
2022-11-27T06:32:49.588Z,64.90
2022-11-27T06:35:17.365Z,65.20
2022-11-27T06:37:45.112Z,64.20
2022-11-27T06:40:13.118Z,69.80
2022-11-27T06:42:41.071Z,66.40
2022-11-27T06:45:09.560Z,66.90
2022-11-27T06:47:37.461Z,64.40
2022-11-27T06:50:05.687Z,64.10
2022-11-27T06:52:37.254Z,64.60
2022-11-27T06:55:08.122Z,65.70
2022-11-27T06:57:36.036Z,65.20
2022-11-27T07:00:04.076Z,67.70
2022-11-27T07:02:31.869Z,55.30
2022-11-27T07:04:59.829Z,65.60
2022-11-27T07:07:27.683Z,65.70
2022-11-27T07:09:55.486Z,71.20
2022-11-27T07:12:23.426Z,70.60
2022-11-27T07:14:51.220Z,69.70
2022-11-27T07:17:18.995Z,67.80
2022-11-27T07:19:47.125Z,70.30
2022-11-27T07:22:25.166Z,62.10
2022-11-27T07:24:53.139Z,67.70
2022-11-27T07:27:20.958Z,72.10
2022-11-27T07:29:49.142Z,68.80
2022-11-27T07:32:17.286Z,69.40
2022-11-27T07:34:45.270Z,74.80
2022-11-27T07:37:13.252Z,77.20
2022-11-27T07:40:01.269Z,77.10
2022-11-27T07:42:38.021Z,80.50
2022-11-27T07:45:13.860Z,73.10
2022-11-27T07:47:41.716Z,74.20
2022-11-27T07:50:10.609Z,75.80
2022-11-27T07:52:41.944Z,70.20
2022-11-27T07:55:10.938Z,93.40
2022-11-27T07:57:38.650Z,76.90
2022-11-27T08:00:06.871Z,79.50
2022-11-27T08:02:35.254Z,74.00
2022-11-27T08:05:08.056Z,63.40
2022-11-27T08:07:39.181Z,71.70
2022-11-27T08:10:27.535Z,70.60
2022-11-27T08:12:55.360Z,62.60
2022-11-27T08:15:25.255Z,79.00
2022-11-27T08:17:53.063Z,73.20
2022-11-27T08:20:21.092Z,60.80
2022-11-27T08:22:49.658Z,71.40
2022-11-27T08:25:17.733Z,72.90
2022-11-27T08:27:48.127Z,74.20
2022-11-27T08:30:16.462Z,63.80
2022-11-27T08:32:44.826Z,72.10
2022-11-27T08:35:12.646Z,73.50
2022-11-27T08:37:47.229Z,70.20
2022-11-27T08:40:15.343Z,70.20
2022-11-27T08:42:43.326Z,70.10
2022-11-27T08:45:11.519Z,70.80
2022-11-27T08:47:39.414Z,74.10
2022-11-27T08:50:07.761Z,76.50
2022-11-27T08:52:35.547Z,85.10
2022-11-27T08:55:03.931Z,82.90
2022-11-27T08:57:31.687Z,80.80
2022-11-27T08:59:59.600Z,73.30
2022-11-27T09:02:27.443Z,70.50
2022-11-27T09:04:55.105Z,66.40
2022-11-27T09:07:22.992Z,68.30
2022-11-27T09:09:51.254Z,72.40
2022-11-27T09:12:19.135Z,86.60
2022-11-27T09:14:46.920Z,89.40
2022-11-27T09:17:14.853Z,75.30
2022-11-27T09:19:42.537Z,80.40
2022-11-27T09:22:10.334Z,95.80
2022-11-27T09:24:38.528Z,79.90
2022-11-27T09:27:06.680Z,72.00
2022-11-27T09:29:35.127Z,74.80
2022-11-27T09:32:02.937Z,82.80
2022-11-27T09:34:37.238Z,77.40
2022-11-27T09:37:05.843Z,78.10
2022-11-27T09:39:34.324Z,69.20
2022-11-27T09:42:14.976Z,65.40
2022-11-27T09:44:54.959Z,62.60
2022-11-27T09:47:25.915Z,64.90
2022-11-27T09:50:24.538Z,70.90
2022-11-27T09:53:01.573Z,75.90
2022-11-27T09:55:36.965Z,73.60
2022-11-27T09:58:06.694Z,70.80
2022-11-27T10:00:34.554Z,70.50
2022-11-27T10:03:02.853Z,78.70
2022-11-27T10:05:39.283Z,84.80
2022-11-27T10:08:13.359Z,82.80
2022-11-27T10:10:47.168Z,76.40
2022-11-27T10:13:20.984Z,69.30
2022-11-27T10:15:54.649Z,76.90
2022-11-27T10:18:52.101Z,69.00
2022-11-27T10:21:40.880Z,67.10
2022-11-27T10:24:36.925Z,70.50
2022-11-27T10:27:16.250Z,77.40
2022-11-27T10:29:47.273Z,75.40
2022-11-27T10:32:53.388Z,76.20
2022-11-27T10:35:19.682Z,72.60
2022-11-27T10:37:51.992Z,74.10
2022-11-27T10:40:25.169Z,81.40
2022-11-27T10:43:12.327Z,72.90
2022-11-27T10:45:44.477Z,74.00
2022-11-27T10:48:13.410Z,71.00
2022-11-27T10:50:41.749Z,69.20
2022-11-27T10:53:12.224Z,61.60
2022-11-27T10:56:06.474Z,68.90
2022-11-27T10:58:53.486Z,75.90
2022-11-27T11:01:21.892Z,59.10
2022-11-27T11:03:50.455Z,57.40
2022-11-27T11:06:23.952Z,59.80
2022-11-27T11:09:25.369Z,70.60
2022-11-27T11:11:53.211Z,62.60
2022-11-27T11:14:27.323Z,67.00
2022-11-27T11:17:03.391Z,70.80
2022-11-27T11:19:32.577Z,72.90
2022-11-27T11:22:04.024Z,68.20
2022-11-27T11:24:33.454Z,59.10
2022-11-27T11:27:04.873Z,57.70
2022-11-27T11:29:34.949Z,49.60
2022-11-27T11:32:08.777Z,54.20
2022-11-27T11:34:42.388Z,55.00
2022-11-27T11:37:20.533Z,48.70
2022-11-27T11:39:53.786Z,58.20
2022-11-27T11:42:23.491Z,54.10
2022-11-27T11:44:53.002Z,57.20
2022-11-27T11:47:24.955Z,57.50
2022-11-27T11:49:53.768Z,55.80
2022-11-27T11:52:24.578Z,59.60
2022-11-27T11:55:13.781Z,54.80
2022-11-27T11:57:44.632Z,55.50
2022-11-27T12:00:17.074Z,50.50
2022-11-27T12:02:54.265Z,51.60
2022-11-27T12:05:29.144Z,56.00
2022-11-27T12:08:00.161Z,46.50
2022-11-27T12:10:48.968Z,55.50
2022-11-27T12:13:22.256Z,56.00
2022-11-27T12:15:53.061Z,48.90
2022-11-27T12:18:25.928Z,54.20
2022-11-27T12:21:05.464Z,52.20
2022-11-27T12:23:33.360Z,51.80
2022-11-27T12:26:08.505Z,52.10
2022-11-27T12:28:39.985Z,55.20
2022-11-27T12:31:20.225Z,51.20
2022-11-27T12:33:57.563Z,47.50
2022-11-27T12:36:28.538Z,57.00
2022-11-27T12:39:15.129Z,50.40
2022-11-27T12:41:55.380Z,57.70
2022-11-27T12:44:30.087Z,49.80
2022-11-27T12:47:06.083Z,54.40
2022-11-27T12:49:42.021Z,57.00
2022-11-27T12:52:13.166Z,56.20
2022-11-27T12:54:48.151Z,55.60
2022-11-27T12:57:36.639Z,55.60
2022-11-27T13:00:06.287Z,52.20
2022-11-27T13:02:36.908Z,56.90
2022-11-27T13:05:30.317Z,54.20
2022-11-27T13:08:01.207Z,55.40
2022-11-27T13:10:40.607Z,60.10
2022-11-27T13:13:08.503Z,58.70
2022-11-27T13:15:36.690Z,53.10
2022-11-27T13:18:14.661Z,57.40
2022-11-27T13:20:45.511Z,61.20
2022-11-27T13:23:15.310Z,63.60
2022-11-27T13:25:45.689Z,61.60
2022-11-27T13:28:20.736Z,62.10
2022-11-27T13:30:49.038Z,59.70
2022-11-27T13:33:24.272Z,63.90
2022-11-27T13:35:55.042Z,65.70
2022-11-27T13:38:24.485Z,61.40
2022-11-27T13:40:53.558Z,60.10
2022-11-27T13:43:24.366Z,61.70
2022-11-27T13:46:00.473Z,57.90
2022-11-27T13:48:31.966Z,60.70
2022-11-27T13:51:00.384Z,60.40
2022-11-27T13:53:33.231Z,58.60
2022-11-27T13:56:01.210Z,61.40
2022-11-27T13:58:39.766Z,59.40
2022-11-27T14:01:18.383Z,59.80
2022-11-27T14:03:46.435Z,59.90
2022-11-27T14:06:23.161Z,59.90
2022-11-27T14:08:56.049Z,71.70
2022-11-27T14:11:47.141Z,69.50
2022-11-27T14:14:23.894Z,67.90
2022-11-27T14:16:59.044Z,64.50
2022-11-27T14:19:39.329Z,67.20
2022-11-27T14:22:17.019Z,63.10
2022-11-27T14:24:55.953Z,64.90
2022-11-27T14:27:25.052Z,62.50
2022-11-27T14:29:52.988Z,71.50
2022-11-27T14:32:21.240Z,73.30
2022-11-27T14:34:49.156Z,64.50
2022-11-27T14:37:22.871Z,63.40
2022-11-27T14:39:50.875Z,68.30
2022-11-27T14:42:28.109Z,71.50
2022-11-27T14:45:13.067Z,69.70
2022-11-27T14:47:42.414Z,66.50
2022-11-27T14:50:13.715Z,70.60
2022-11-27T14:52:42.522Z,68.00
2022-11-27T14:55:14.535Z,61.40
2022-11-27T14:57:43.106Z,62.40
2022-11-27T15:00:14.226Z,65.80
2022-11-27T15:02:43.095Z,67.60
2022-11-27T15:05:22.403Z,70.60
2022-11-27T15:07:53.251Z,70.10
2022-11-27T15:10:28.621Z,71.10
2022-11-27T15:12:57.603Z,73.30
2022-11-27T15:15:27.520Z,77.70
2022-11-27T15:17:57.716Z,87.30
2022-11-27T15:20:45.830Z,80.90
2022-11-27T15:23:25.317Z,80.50
2022-11-27T15:25:59.245Z,75.50
2022-11-27T15:28:37.583Z,64.50
2022-11-27T15:31:24.518Z,75.40
2022-11-27T15:33:55.386Z,78.10
2022-11-27T15:36:24.641Z,95.50
2022-11-27T15:38:53.060Z,90.00
2022-11-27T15:41:28.465Z,75.30
2022-11-27T15:43:56.780Z,65.10
2022-11-27T15:46:31.914Z,63.80
2022-11-27T15:48:59.723Z,66.30
2022-11-27T15:51:27.621Z,67.90
2022-11-27T15:53:55.574Z,71.40
2022-11-27T15:56:29.959Z,59.50
2022-11-27T15:58:58.137Z,68.80
2022-11-27T16:01:26.506Z,64.70
2022-11-27T16:03:54.523Z,54.30
2022-11-27T16:06:24.786Z,59.80
2022-11-27T16:09:00.092Z,64.70
2022-11-27T16:11:28.935Z,65.20
2022-11-27T16:13:57.434Z,68.70
2022-11-27T16:16:25.470Z,64.90
2022-11-27T16:18:56.442Z,66.50
2022-11-27T16:21:29.246Z,61.30
2022-11-27T16:23:58.986Z,63.60
2022-11-27T16:26:27.519Z,67.20
2022-11-27T16:28:55.482Z,65.40
2022-11-27T16:31:24.359Z,79.50
2022-11-27T16:33:52.619Z,63.30
2022-11-27T16:36:22.722Z,62.80
2022-11-27T16:38:52.518Z,63.10
2022-11-27T16:41:20.497Z,70.50
2022-11-27T16:43:49.968Z,69.40
2022-11-27T16:46:30.683Z,65.40
2022-11-27T16:49:00.941Z,68.10
2022-11-27T16:51:33.389Z,66.50
2022-11-27T16:54:02.762Z,71.20
2022-11-27T16:56:31.204Z,73.50
2022-11-27T16:59:03.163Z,57.90
2022-11-27T17:01:34.707Z,57.00
2022-11-27T17:04:04.872Z,60.80
2022-11-27T17:06:33.564Z,53.50
2022-11-27T17:09:02.679Z,52.20
2022-11-27T17:11:50.774Z,59.80
2022-11-27T17:14:20.652Z,60.70
2022-11-27T17:16:50.103Z,53.40
2022-11-27T17:19:21.260Z,49.50
2022-11-27T17:21:49.200Z,49.90
2022-11-27T17:24:18.991Z,54.10
2022-11-27T17:26:48.109Z,47.50
2022-11-27T17:29:17.537Z,54.80
2022-11-27T17:31:52.082Z,61.10
2022-11-27T17:34:20.816Z,59.50
2022-11-27T17:36:53.660Z,61.50
2022-11-27T17:39:22.140Z,51.60
2022-11-27T17:41:52.314Z,51.90
2022-11-27T17:44:40.230Z,57.90
2022-11-27T17:47:08.032Z,60.90
2022-11-27T17:49:35.859Z,63.10
2022-11-27T17:52:06.526Z,51.60
2022-11-27T17:54:36.280Z,90.10
2022-11-27T17:57:06.014Z,49.90
2022-11-27T17:59:35.072Z,50.40
2022-11-27T18:02:03.192Z,51.40
2022-11-27T18:04:32.507Z,61.90
2022-11-27T18:07:00.842Z,52.50
2022-11-27T18:09:33.482Z,48.60
2022-11-27T18:12:01.943Z,49.40
2022-11-27T18:14:30.393Z,49.90
2022-11-27T18:17:04.318Z,47.90
2022-11-27T18:19:32.782Z,46.90
2022-11-27T18:22:00.910Z,45.20
2022-11-27T18:24:28.838Z,45.30
2022-11-27T18:27:12.279Z,46.20
2022-11-27T18:29:42.490Z,46.40
2022-11-27T18:32:11.674Z,42.30
2022-11-27T18:34:40.592Z,43.90
2022-11-27T18:37:08.754Z,38.70
2022-11-27T18:39:40.112Z,45.00
2022-11-27T18:42:12.501Z,47.80
2022-11-27T18:44:44.878Z,43.30
2022-11-27T18:47:14.489Z,44.10
2022-11-27T18:49:44.218Z,45.50
2022-11-27T18:52:19.816Z,46.80
2022-11-27T18:54:47.667Z,41.60
2022-11-27T18:57:15.636Z,42.20
2022-11-27T18:59:50.437Z,41.60
2022-11-27T19:02:18.863Z,41.30
2022-11-27T19:04:46.967Z,49.10
2022-11-27T19:07:15.059Z,48.70
2022-11-27T19:09:43.747Z,47.30
2022-11-27T19:12:13.978Z,46.60
2022-11-27T19:14:42.154Z,47.50
2022-11-27T19:17:10.612Z,87.00
2022-11-27T19:19:54.962Z,84.20
2022-11-27T19:22:23.326Z,53.20
2022-11-27T19:24:51.356Z,50.10
2022-11-27T19:27:19.617Z,47.90
2022-11-27T19:29:49.078Z,46.30
2022-11-27T19:32:17.210Z,45.60
2022-11-27T19:34:45.197Z,45.60
2022-11-27T19:37:13.326Z,43.50
2022-11-27T19:39:41.090Z,42.50
2022-11-27T19:42:09.168Z,42.50
2022-11-27T19:44:39.680Z,49.80
2022-11-27T19:47:09.521Z,41.50
2022-11-27T19:49:38.779Z,41.70
2022-11-27T19:52:08.628Z,45.80
2022-11-27T19:54:42.429Z,48.50
2022-11-27T19:57:15.255Z,51.10
2022-11-27T19:59:45.472Z,49.70
2022-11-27T20:02:19.737Z,47.60
2022-11-27T20:04:48.419Z,45.00
2022-11-27T20:07:16.383Z,43.10
2022-11-27T20:09:44.546Z,42.20
2022-11-27T20:12:15.510Z,42.60
2022-11-27T20:14:47.994Z,45.00
2022-11-27T20:17:19.731Z,48.00
2022-11-27T20:19:47.593Z,47.90
2022-11-27T20:25:17.316Z,42.80
2022-11-27T20:27:39.825Z,43.30
2022-11-27T20:30:08.053Z,43.20
2022-11-27T20:32:36.006Z,49.20
2022-11-27T20:35:04.702Z,42.50
2022-11-27T20:37:35.051Z,43.80
2022-11-27T20:40:03.764Z,45.40
2022-11-27T20:42:32.592Z,46.50
2022-11-27T20:45:06.119Z,44.70
2022-11-27T20:47:34.781Z,44.80
2022-11-27T20:50:03.111Z,45.30
2022-11-27T20:52:32.880Z,41.90
2022-11-27T20:55:01.123Z,45.30
2022-11-27T20:57:29.773Z,48.50
2022-11-27T20:59:58.006Z,49.10
2022-11-27T21:02:26.977Z,47.40
2022-11-27T21:04:55.112Z,49.20
2022-11-27T21:07:32.250Z,45.20
2022-11-27T21:10:08.321Z,45.20
2022-11-27T21:12:41.034Z,45.70
2022-11-27T21:15:12.376Z,45.60
2022-11-27T21:17:41.128Z,48.20
2022-11-27T21:20:10.486Z,42.20
2022-11-27T21:22:42.585Z,40.30
2022-11-27T21:25:13.740Z,45.60
2022-11-27T21:27:41.825Z,44.50
2022-11-27T21:30:10.852Z,41.70
2022-11-27T21:32:40.335Z,44.90
2022-11-27T21:35:08.770Z,45.50
2022-11-27T21:37:36.676Z,45.80
2022-11-27T21:40:07.036Z,42.40
2022-11-27T21:42:35.036Z,44.60
2022-11-27T21:45:05.553Z,46.60
2022-11-27T21:47:35.627Z,57.10
2022-11-27T21:50:03.521Z,52.20
2022-11-27T21:52:35.668Z,57.50
2022-11-27T21:55:07.735Z,56.60
2022-11-27T21:57:38.402Z,52.50
2022-11-27T22:00:06.786Z,45.80
2022-11-27T22:02:41.048Z,48.80
2022-11-27T22:05:09.135Z,49.50
2022-11-27T22:07:37.321Z,53.90
2022-11-27T22:10:12.131Z,48.40
2022-11-27T22:12:40.418Z,44.00
2022-11-27T22:15:08.516Z,52.60
2022-11-27T22:17:37.197Z,42.80
2022-11-27T22:20:05.778Z,38.70
2022-11-27T22:22:33.707Z,39.30
2022-11-27T22:25:04.416Z,39.80
2022-11-27T22:27:34.513Z,41.00
2022-11-27T22:30:02.802Z,39.40
2022-11-27T22:32:30.585Z,45.60
2022-11-27T22:34:58.947Z,43.80
2022-11-27T22:37:26.821Z,43.00
2022-11-27T22:39:54.826Z,39.10
2022-11-27T22:42:22.668Z,35.30
2022-11-27T22:44:50.501Z,40.80
2022-11-27T22:47:18.318Z,40.50
2022-11-27T22:49:46.144Z,47.70
2022-11-27T22:52:13.863Z,49.00
2022-11-27T22:54:42.101Z,45.30
2022-11-27T22:57:10.162Z,43.90
2022-11-27T22:59:38.174Z,41.60
2022-11-27T23:02:06.880Z,35.70
2022-11-27T23:04:36.085Z,37.10
2022-11-27T23:07:05.251Z,38.70
2022-11-27T23:09:34.457Z,35.30
2022-11-27T23:12:02.633Z,36.80
2022-11-27T23:14:31.109Z,39.80
2022-11-27T23:16:59.506Z,41.20
2022-11-27T23:19:27.834Z,41.60
2022-11-27T23:21:55.904Z,41.50
2022-11-27T23:24:23.881Z,37.10
2022-11-27T23:26:51.714Z,41.00
2022-11-27T23:29:19.623Z,38.70
2022-11-27T23:31:54.249Z,39.30
2022-11-27T23:34:29.242Z,38.00
2022-11-27T23:37:04.252Z,38.50
2022-11-27T23:39:35.954Z,38.40
2022-11-27T23:42:07.698Z,36.50
2022-11-27T23:44:36.418Z,37.30
2022-11-27T23:47:04.342Z,38.20
2022-11-27T23:49:32.235Z,35.40
2022-11-27T23:52:00.045Z,41.20
2022-11-27T23:54:34.819Z,39.30
2022-11-27T23:57:03.490Z,42.40
2022-11-27T23:59:31.387Z,44.90
